sensor_id;sensor_type;location;lat;lon;timestamp;P1;durP1;ratioP1;P2;durP2;ratioP2
1128;SDS011;553;51.038;7.216;2022-11-13T00:01:41;3.23;;;2.53;;
1128;SDS011;553;51.038;7.216;2022-11-13T00:04:27;4.00;;;2.20;;
1128;SDS011;553;51.038;7.216;2022-11-13T00:07:12;3.97;;;2.40;;
1128;SDS011;553;51.038;7.216;2022-11-13T00:09:58;3.80;;;2.40;;
1128;SDS011;553;51.038;7.216;2022-11-13T00:12:43;3.20;;;2.27;;
1128;SDS011;553;51.038;7.216;2022-11-13T00:15:29;2.30;;;1.87;;
1128;SDS011;553;51.038;7.216;2022-11-13T00:18:14;2.53;;;1.80;;
1128;SDS011;553;51.038;7.216;2022-11-13T00:21:03;3.10;;;1.80;;
1128;SDS011;553;51.038;7.216;2022-11-13T00:23:50;2.20;;;1.87;;
1128;SDS011;553;51.038;7.216;2022-11-13T00:26:35;2.90;;;2.20;;
1128;SDS011;553;51.038;7.216;2022-11-13T00:29:21;3.00;;;1.70;;
1128;SDS011;553;51.038;7.216;2022-11-13T00:32:06;2.37;;;1.57;;
1128;SDS011;553;51.038;7.216;2022-11-13T00:34:52;3.97;;;2.10;;
1128;SDS011;553;51.038;7.216;2022-11-13T00:37:37;2.43;;;1.73;;
1128;SDS011;553;51.038;7.216;2022-11-13T00:40:22;2.43;;;1.67;;
1128;SDS011;553;51.038;7.216;2022-11-13T00:43:08;2.57;;;2.10;;
1128;SDS011;553;51.038;7.216;2022-11-13T00:45:53;4.50;;;2.20;;
1128;SDS011;553;51.038;7.216;2022-11-13T00:48:39;3.53;;;1.80;;
1128;SDS011;553;51.038;7.216;2022-11-13T00:51:24;6.27;;;2.20;;
1128;SDS011;553;51.038;7.216;2022-11-13T00:54:10;2.93;;;2.03;;
1128;SDS011;553;51.038;7.216;2022-11-13T00:56:55;2.47;;;1.90;;
1128;SDS011;553;51.038;7.216;2022-11-13T00:59:40;2.83;;;1.63;;
1128;SDS011;553;51.038;7.216;2022-11-13T01:02:26;2.50;;;1.77;;
1128;SDS011;553;51.038;7.216;2022-11-13T01:05:11;2.40;;;1.80;;
1128;SDS011;553;51.038;7.216;2022-11-13T01:07:56;3.80;;;2.00;;
1128;SDS011;553;51.038;7.216;2022-11-13T01:10:43;2.50;;;1.67;;
1128;SDS011;553;51.038;7.216;2022-11-13T01:13:41;2.50;;;2.00;;
1128;SDS011;553;51.038;7.216;2022-11-13T01:16:28;3.70;;;1.53;;
1128;SDS011;553;51.038;7.216;2022-11-13T01:19:13;3.10;;;2.50;;
1128;SDS011;553;51.038;7.216;2022-11-13T01:21:58;2.93;;;2.00;;
1128;SDS011;553;51.038;7.216;2022-11-13T01:24:44;2.17;;;1.70;;
1128;SDS011;553;51.038;7.216;2022-11-13T01:27:29;2.87;;;2.27;;
1128;SDS011;553;51.038;7.216;2022-11-13T01:30:15;2.60;;;1.63;;
1128;SDS011;553;51.038;7.216;2022-11-13T01:33:00;4.00;;;1.97;;
1128;SDS011;553;51.038;7.216;2022-11-13T01:35:45;2.80;;;1.90;;
1128;SDS011;553;51.038;7.216;2022-11-13T01:38:31;1.90;;;1.40;;
1128;SDS011;553;51.038;7.216;2022-11-13T01:41:28;2.87;;;2.00;;
1128;SDS011;553;51.038;7.216;2022-11-13T01:44:16;3.57;;;1.50;;
1128;SDS011;553;51.038;7.216;2022-11-13T01:47:02;1.77;;;1.40;;
1128;SDS011;553;51.038;7.216;2022-11-13T01:49:48;2.80;;;1.93;;
1128;SDS011;553;51.038;7.216;2022-11-13T01:52:37;2.93;;;1.77;;
1128;SDS011;553;51.038;7.216;2022-11-13T01:55:26;2.80;;;1.77;;
1128;SDS011;553;51.038;7.216;2022-11-13T01:58:11;2.53;;;1.80;;
1128;SDS011;553;51.038;7.216;2022-11-13T02:00:57;4.20;;;1.73;;
1128;SDS011;553;51.038;7.216;2022-11-13T02:03:43;5.00;;;2.00;;
1128;SDS011;553;51.038;7.216;2022-11-13T02:06:33;3.53;;;1.70;;
1128;SDS011;553;51.038;7.216;2022-11-13T02:09:25;2.43;;;1.63;;
1128;SDS011;553;51.038;7.216;2022-11-13T02:12:15;2.30;;;1.67;;
1128;SDS011;553;51.038;7.216;2022-11-13T02:15:05;2.17;;;1.63;;
1128;SDS011;553;51.038;7.216;2022-11-13T02:17:56;1.80;;;1.30;;
1128;SDS011;553;51.038;7.216;2022-11-13T02:26:55;2.30;;;1.40;;
1128;SDS011;553;51.038;7.216;2022-11-13T02:29:45;1.57;;;1.20;;
1128;SDS011;553;51.038;7.216;2022-11-13T02:32:30;3.60;;;1.80;;
1128;SDS011;553;51.038;7.216;2022-11-13T02:35:18;2.90;;;1.50;;
1128;SDS011;553;51.038;7.216;2022-11-13T02:38:15;2.67;;;1.40;;
1128;SDS011;553;51.038;7.216;2022-11-13T02:41:01;2.63;;;1.87;;
1128;SDS011;553;51.038;7.216;2022-11-13T02:43:46;2.33;;;1.33;;
1128;SDS011;553;51.038;7.216;2022-11-13T02:46:32;2.43;;;1.40;;
1128;SDS011;553;51.038;7.216;2022-11-13T02:49:18;3.00;;;1.97;;
1128;SDS011;553;51.038;7.216;2022-11-13T02:52:03;3.20;;;1.60;;
1128;SDS011;553;51.038;7.216;2022-11-13T02:54:49;1.73;;;1.47;;
1128;SDS011;553;51.038;7.216;2022-11-13T02:57:34;1.87;;;1.40;;
1128;SDS011;553;51.038;7.216;2022-11-13T03:00:20;2.47;;;1.40;;
1128;SDS011;553;51.038;7.216;2022-11-13T03:03:05;2.40;;;1.33;;
1128;SDS011;553;51.038;7.216;2022-11-13T03:05:51;3.40;;;1.70;;
1128;SDS011;553;51.038;7.216;2022-11-13T03:08:36;3.33;;;1.57;;
1128;SDS011;553;51.038;7.216;2022-11-13T03:11:22;3.53;;;1.80;;
1128;SDS011;553;51.038;7.216;2022-11-13T03:14:08;2.30;;;1.30;;
1128;SDS011;553;51.038;7.216;2022-11-13T03:16:53;1.57;;;1.30;;
1128;SDS011;553;51.038;7.216;2022-11-13T03:19:38;1.53;;;1.20;;
1128;SDS011;553;51.038;7.216;2022-11-13T03:22:24;1.53;;;1.43;;
1128;SDS011;553;51.038;7.216;2022-11-13T03:25:10;2.57;;;1.23;;
1128;SDS011;553;51.038;7.216;2022-11-13T03:27:55;2.10;;;0.93;;
1128;SDS011;553;51.038;7.216;2022-11-13T03:30:42;2.53;;;1.30;;
1128;SDS011;553;51.038;7.216;2022-11-13T03:33:27;2.50;;;1.53;;
1128;SDS011;553;51.038;7.216;2022-11-13T03:36:13;1.73;;;1.37;;
1128;SDS011;553;51.038;7.216;2022-11-13T03:38:58;2.33;;;0.90;;
1128;SDS011;553;51.038;7.216;2022-11-13T03:41:43;2.83;;;1.03;;
1128;SDS011;553;51.038;7.216;2022-11-13T03:44:29;2.10;;;1.27;;
1128;SDS011;553;51.038;7.216;2022-11-13T03:47:14;1.77;;;0.90;;
1128;SDS011;553;51.038;7.216;2022-11-13T03:50:00;2.00;;;1.00;;
1128;SDS011;553;51.038;7.216;2022-11-13T03:52:45;1.47;;;0.97;;
1128;SDS011;553;51.038;7.216;2022-11-13T03:55:30;2.50;;;1.20;;
1128;SDS011;553;51.038;7.216;2022-11-13T03:58:16;1.50;;;0.93;;
1128;SDS011;553;51.038;7.216;2022-11-13T04:01:01;1.10;;;0.90;;
1128;SDS011;553;51.038;7.216;2022-11-13T04:03:47;1.43;;;0.93;;
1128;SDS011;553;51.038;7.216;2022-11-13T04:06:32;1.30;;;0.70;;
1128;SDS011;553;51.038;7.216;2022-11-13T04:09:18;2.07;;;1.10;;
1128;SDS011;553;51.038;7.216;2022-11-13T04:12:03;0.97;;;0.63;;
1128;SDS011;553;51.038;7.216;2022-11-13T04:14:49;1.23;;;0.87;;
1128;SDS011;553;51.038;7.216;2022-11-13T04:17:34;1.40;;;0.83;;
1128;SDS011;553;51.038;7.216;2022-11-13T04:20:20;2.10;;;0.90;;
1128;SDS011;553;51.038;7.216;2022-11-13T04:23:05;0.93;;;0.60;;
1128;SDS011;553;51.038;7.216;2022-11-13T04:25:55;1.63;;;1.03;;
1128;SDS011;553;51.038;7.216;2022-11-13T04:28:40;1.30;;;0.83;;
1128;SDS011;553;51.038;7.216;2022-11-13T04:31:25;1.40;;;0.77;;
1128;SDS011;553;51.038;7.216;2022-11-13T04:34:11;1.43;;;0.80;;
1128;SDS011;553;51.038;7.216;2022-11-13T04:36:56;2.17;;;0.67;;
1128;SDS011;553;51.038;7.216;2022-11-13T04:39:42;1.13;;;0.90;;
1128;SDS011;553;51.038;7.216;2022-11-13T04:42:27;2.20;;;1.10;;
1128;SDS011;553;51.038;7.216;2022-11-13T04:45:31;2.50;;;0.70;;
1128;SDS011;553;51.038;7.216;2022-11-13T04:48:16;2.80;;;0.80;;
1128;SDS011;553;51.038;7.216;2022-11-13T04:51:02;1.10;;;0.77;;
1128;SDS011;553;51.038;7.216;2022-11-13T04:53:47;2.03;;;0.80;;
1128;SDS011;553;51.038;7.216;2022-11-13T04:56:32;1.80;;;1.00;;
1128;SDS011;553;51.038;7.216;2022-11-13T04:59:18;1.63;;;1.03;;
1128;SDS011;553;51.038;7.216;2022-11-13T05:02:03;1.83;;;0.90;;
1128;SDS011;553;51.038;7.216;2022-11-13T05:04:49;2.30;;;0.87;;
1128;SDS011;553;51.038;7.216;2022-11-13T05:07:34;1.50;;;0.90;;
1128;SDS011;553;51.038;7.216;2022-11-13T05:10:20;1.57;;;0.77;;
1128;SDS011;553;51.038;7.216;2022-11-13T05:13:05;1.90;;;1.20;;
1128;SDS011;553;51.038;7.216;2022-11-13T05:15:58;1.17;;;0.67;;
1128;SDS011;553;51.038;7.216;2022-11-13T05:18:44;1.20;;;0.70;;
1128;SDS011;553;51.038;7.216;2022-11-13T05:21:30;1.20;;;0.90;;
1128;SDS011;553;51.038;7.216;2022-11-13T05:24:15;1.63;;;0.93;;
1128;SDS011;553;51.038;7.216;2022-11-13T05:27:00;1.40;;;1.00;;
1128;SDS011;553;51.038;7.216;2022-11-13T05:29:46;1.60;;;0.80;;
1128;SDS011;553;51.038;7.216;2022-11-13T05:32:31;1.50;;;0.80;;
1128;SDS011;553;51.038;7.216;2022-11-13T05:35:17;1.10;;;0.70;;
1128;SDS011;553;51.038;7.216;2022-11-13T05:38:02;2.07;;;1.00;;
1128;SDS011;553;51.038;7.216;2022-11-13T05:40:47;1.27;;;0.80;;
1128;SDS011;553;51.038;7.216;2022-11-13T05:43:33;1.70;;;0.83;;
1128;SDS011;553;51.038;7.216;2022-11-13T05:46:23;2.17;;;0.77;;
1128;SDS011;553;51.038;7.216;2022-11-13T05:49:10;1.20;;;0.60;;
1128;SDS011;553;51.038;7.216;2022-11-13T05:51:55;1.47;;;0.90;;
1128;SDS011;553;51.038;7.216;2022-11-13T05:54:41;2.10;;;1.10;;
1128;SDS011;553;51.038;7.216;2022-11-13T05:57:26;2.07;;;1.10;;
1128;SDS011;553;51.038;7.216;2022-11-13T06:00:12;2.27;;;1.03;;
1128;SDS011;553;51.038;7.216;2022-11-13T06:02:58;1.67;;;0.90;;
1128;SDS011;553;51.038;7.216;2022-11-13T06:05:44;2.00;;;0.90;;
1128;SDS011;553;51.038;7.216;2022-11-13T06:08:29;1.60;;;0.77;;
1128;SDS011;553;51.038;7.216;2022-11-13T06:11:16;1.90;;;0.90;;
1128;SDS011;553;51.038;7.216;2022-11-13T06:14:03;1.80;;;0.80;;
1128;SDS011;553;51.038;7.216;2022-11-13T06:16:48;1.00;;;0.80;;
1128;SDS011;553;51.038;7.216;2022-11-13T06:19:33;1.00;;;0.80;;
1128;SDS011;553;51.038;7.216;2022-11-13T06:22:19;1.47;;;0.87;;
1128;SDS011;553;51.038;7.216;2022-11-13T06:25:04;1.10;;;0.70;;
1128;SDS011;553;51.038;7.216;2022-11-13T06:27:51;1.07;;;0.50;;
1128;SDS011;553;51.038;7.216;2022-11-13T06:30:37;1.10;;;0.63;;
1128;SDS011;553;51.038;7.216;2022-11-13T06:33:22;0.93;;;0.50;;
1128;SDS011;553;51.038;7.216;2022-11-13T06:36:09;1.33;;;0.53;;
1128;SDS011;553;51.038;7.216;2022-11-13T06:38:56;0.90;;;0.60;;
1128;SDS011;553;51.038;7.216;2022-11-13T06:41:42;1.23;;;0.77;;
1128;SDS011;553;51.038;7.216;2022-11-13T06:44:27;1.30;;;0.60;;
1128;SDS011;553;51.038;7.216;2022-11-13T06:47:12;1.23;;;0.40;;
1128;SDS011;553;51.038;7.216;2022-11-13T06:49:58;0.90;;;0.60;;
1128;SDS011;553;51.038;7.216;2022-11-13T06:52:43;1.20;;;0.83;;
1128;SDS011;553;51.038;7.216;2022-11-13T06:55:28;0.93;;;0.60;;
1128;SDS011;553;51.038;7.216;2022-11-13T06:58:14;1.20;;;0.70;;
1128;SDS011;553;51.038;7.216;2022-11-13T07:01:10;1.93;;;0.70;;
1128;SDS011;553;51.038;7.216;2022-11-13T07:03:57;3.37;;;0.50;;
1128;SDS011;553;51.038;7.216;2022-11-13T07:06:42;0.93;;;0.57;;
1128;SDS011;553;51.038;7.216;2022-11-13T07:09:28;1.30;;;0.63;;
1128;SDS011;553;51.038;7.216;2022-11-13T07:12:14;1.33;;;0.60;;
1128;SDS011;553;51.038;7.216;2022-11-13T07:14:59;1.43;;;0.67;;
1128;SDS011;553;51.038;7.216;2022-11-13T07:17:44;0.90;;;0.47;;
1128;SDS011;553;51.038;7.216;2022-11-13T07:20:30;4.83;;;0.80;;
1128;SDS011;553;51.038;7.216;2022-11-13T07:23:15;1.33;;;0.83;;
1128;SDS011;553;51.038;7.216;2022-11-13T07:26:02;1.20;;;0.60;;
1128;SDS011;553;51.038;7.216;2022-11-13T07:28:47;1.00;;;0.57;;
1128;SDS011;553;51.038;7.216;2022-11-13T07:31:33;0.97;;;0.60;;
1128;SDS011;553;51.038;7.216;2022-11-13T07:34:19;0.97;;;0.60;;
1128;SDS011;553;51.038;7.216;2022-11-13T07:37:04;1.47;;;0.63;;
1128;SDS011;553;51.038;7.216;2022-11-13T07:39:52;1.13;;;0.80;;
1128;SDS011;553;51.038;7.216;2022-11-13T07:42:38;2.10;;;0.70;;
1128;SDS011;553;51.038;7.216;2022-11-13T07:45:23;0.87;;;0.57;;
1128;SDS011;553;51.038;7.216;2022-11-13T07:48:09;1.40;;;0.63;;
1128;SDS011;553;51.038;7.216;2022-11-13T07:50:58;1.13;;;0.67;;
1128;SDS011;553;51.038;7.216;2022-11-13T07:53:44;1.63;;;0.50;;
1128;SDS011;553;51.038;7.216;2022-11-13T07:56:29;1.30;;;0.63;;
1128;SDS011;553;51.038;7.216;2022-11-13T07:59:14;1.50;;;0.80;;
1128;SDS011;553;51.038;7.216;2022-11-13T08:02:00;2.77;;;0.97;;
1128;SDS011;553;51.038;7.216;2022-11-13T08:04:45;1.80;;;1.00;;
1128;SDS011;553;51.038;7.216;2022-11-13T08:07:31;1.50;;;0.77;;
1128;SDS011;553;51.038;7.216;2022-11-13T08:10:16;1.10;;;0.50;;
1128;SDS011;553;51.038;7.216;2022-11-13T08:13:03;1.40;;;0.60;;
1128;SDS011;553;51.038;7.216;2022-11-13T08:15:50;1.23;;;1.00;;
1128;SDS011;553;51.038;7.216;2022-11-13T08:18:36;1.07;;;0.70;;
1128;SDS011;553;51.038;7.216;2022-11-13T08:21:21;1.07;;;0.63;;
1128;SDS011;553;51.038;7.216;2022-11-13T08:24:08;1.30;;;0.70;;
1128;SDS011;553;51.038;7.216;2022-11-13T08:26:53;0.90;;;0.57;;
1128;SDS011;553;51.038;7.216;2022-11-13T08:29:39;1.57;;;0.70;;
1128;SDS011;553;51.038;7.216;2022-11-13T08:32:24;2.60;;;0.50;;
1128;SDS011;553;51.038;7.216;2022-11-13T08:35:09;1.87;;;0.70;;
1128;SDS011;553;51.038;7.216;2022-11-13T08:38:02;1.80;;;0.97;;
1128;SDS011;553;51.038;7.216;2022-11-13T08:40:48;1.07;;;0.70;;
1128;SDS011;553;51.038;7.216;2022-11-13T08:43:34;0.90;;;0.50;;
1128;SDS011;553;51.038;7.216;2022-11-13T08:46:19;1.20;;;0.70;;
1128;SDS011;553;51.038;7.216;2022-11-13T08:49:05;1.37;;;0.97;;
1128;SDS011;553;51.038;7.216;2022-11-13T08:51:50;1.40;;;0.97;;
1128;SDS011;553;51.038;7.216;2022-11-13T08:54:35;1.50;;;0.87;;
1128;SDS011;553;51.038;7.216;2022-11-13T08:57:21;1.27;;;0.90;;
1128;SDS011;553;51.038;7.216;2022-11-13T09:00:07;1.50;;;0.97;;
1128;SDS011;553;51.038;7.216;2022-11-13T09:02:56;2.33;;;0.70;;
1128;SDS011;553;51.038;7.216;2022-11-13T09:05:43;1.10;;;0.57;;
1128;SDS011;553;51.038;7.216;2022-11-13T09:08:29;1.60;;;0.70;;
1128;SDS011;553;51.038;7.216;2022-11-13T09:11:15;1.23;;;0.70;;
1128;SDS011;553;51.038;7.216;2022-11-13T09:14:01;1.63;;;0.90;;
1128;SDS011;553;51.038;7.216;2022-11-13T09:16:46;1.23;;;0.70;;
1128;SDS011;553;51.038;7.216;2022-11-13T09:19:31;1.57;;;0.83;;
1128;SDS011;553;51.038;7.216;2022-11-13T09:22:17;1.10;;;0.80;;
1128;SDS011;553;51.038;7.216;2022-11-13T09:25:02;1.07;;;0.70;;
1128;SDS011;553;51.038;7.216;2022-11-13T09:27:54;0.97;;;0.70;;
1128;SDS011;553;51.038;7.216;2022-11-13T09:30:41;1.47;;;0.83;;
1128;SDS011;553;51.038;7.216;2022-11-13T09:33:26;1.40;;;0.90;;
1128;SDS011;553;51.038;7.216;2022-11-13T09:36:12;1.10;;;0.70;;
1128;SDS011;553;51.038;7.216;2022-11-13T09:38:59;0.90;;;0.50;;
1128;SDS011;553;51.038;7.216;2022-11-13T09:47:53;3.30;;;0.83;;
1128;SDS011;553;51.038;7.216;2022-11-13T09:50:40;2.40;;;0.97;;
1128;SDS011;553;51.038;7.216;2022-11-13T09:53:26;1.20;;;0.80;;
1128;SDS011;553;51.038;7.216;2022-11-13T09:56:21;1.53;;;1.00;;
1128;SDS011;553;51.038;7.216;2022-11-13T10:05:56;2.67;;;1.00;;
1128;SDS011;553;51.038;7.216;2022-11-13T10:08:52;2.30;;;1.10;;
1128;SDS011;553;51.038;7.216;2022-11-13T10:12:00;1.57;;;1.00;;
1128;SDS011;553;51.038;7.216;2022-11-13T10:14:49;1.83;;;1.00;;
1128;SDS011;553;51.038;7.216;2022-11-13T10:23:54;1.50;;;1.27;;
1128;SDS011;553;51.038;7.216;2022-11-13T10:26:41;1.17;;;0.70;;
1128;SDS011;553;51.038;7.216;2022-11-13T10:29:27;1.97;;;1.10;;
1128;SDS011;553;51.038;7.216;2022-11-13T10:32:14;1.83;;;1.00;;
1128;SDS011;553;51.038;7.216;2022-11-13T10:41:04;1.10;;;0.97;;
1128;SDS011;553;51.038;7.216;2022-11-13T10:44:00;1.10;;;0.87;;
1128;SDS011;553;51.038;7.216;2022-11-13T10:46:48;2.10;;;1.13;;
1128;SDS011;553;51.038;7.216;2022-11-13T10:49:34;2.40;;;1.30;;
1128;SDS011;553;51.038;7.216;2022-11-13T10:52:21;1.87;;;1.50;;
1128;SDS011;553;51.038;7.216;2022-11-13T10:58:18;2.23;;;1.03;;
1128;SDS011;553;51.038;7.216;2022-11-13T11:01:22;1.70;;;1.17;;
1128;SDS011;553;51.038;7.216;2022-11-13T11:07:15;1.00;;;0.83;;
1128;SDS011;553;51.038;7.216;2022-11-13T11:10:13;1.60;;;0.80;;
1128;SDS011;553;51.038;7.216;2022-11-13T11:13:10;1.30;;;0.90;;
1128;SDS011;553;51.038;7.216;2022-11-13T11:16:04;1.50;;;0.80;;
1128;SDS011;553;51.038;7.216;2022-11-13T11:19:01;1.60;;;0.70;;
1128;SDS011;553;51.038;7.216;2022-11-13T11:21:52;1.43;;;0.90;;
1128;SDS011;553;51.038;7.216;2022-11-13T11:25:12;1.57;;;0.80;;
1128;SDS011;553;51.038;7.216;2022-11-13T11:28:06;0.83;;;0.60;;
1128;SDS011;553;51.038;7.216;2022-11-13T11:37:02;1.33;;;0.80;;
1128;SDS011;553;51.038;7.216;2022-11-13T11:40:00;1.03;;;0.70;;
1128;SDS011;553;51.038;7.216;2022-11-13T11:43:06;1.30;;;0.80;;
1128;SDS011;553;51.038;7.216;2022-11-13T11:46:13;2.43;;;0.80;;
1128;SDS011;553;51.038;7.216;2022-11-13T11:49:04;1.10;;;0.80;;
1128;SDS011;553;51.038;7.216;2022-11-13T11:52:12;1.67;;;1.10;;
1128;SDS011;553;51.038;7.216;2022-11-13T12:08:16;4.13;;;0.93;;
1128;SDS011;553;51.038;7.216;2022-11-13T12:11:26;1.10;;;0.70;;
1128;SDS011;553;51.038;7.216;2022-11-13T12:14:26;1.20;;;0.63;;
1128;SDS011;553;51.038;7.216;2022-11-13T12:23:46;1.47;;;0.77;;
1128;SDS011;553;51.038;7.216;2022-11-13T12:30:10;1.43;;;0.90;;
1128;SDS011;553;51.038;7.216;2022-11-13T12:33:02;1.10;;;0.70;;
1128;SDS011;553;51.038;7.216;2022-11-13T12:35:55;0.90;;;0.70;;
1128;SDS011;553;51.038;7.216;2022-11-13T12:38:43;1.03;;;0.83;;
1128;SDS011;553;51.038;7.216;2022-11-13T12:41:45;1.53;;;0.53;;
1128;SDS011;553;51.038;7.216;2022-11-13T12:44:58;5.17;;;0.90;;
1128;SDS011;553;51.038;7.216;2022-11-13T12:47:49;0.80;;;0.50;;
1128;SDS011;553;51.038;7.216;2022-11-13T12:50:35;1.00;;;0.60;;
1128;SDS011;553;51.038;7.216;2022-11-13T12:53:41;1.37;;;0.93;;
1128;SDS011;553;51.038;7.216;2022-11-13T12:56:29;1.20;;;0.70;;
1128;SDS011;553;51.038;7.216;2022-11-13T13:02:26;0.80;;;0.50;;
1128;SDS011;553;51.038;7.216;2022-11-13T13:05:46;1.70;;;0.70;;
1128;SDS011;553;51.038;7.216;2022-11-13T13:09:08;1.50;;;1.00;;
1128;SDS011;553;51.038;7.216;2022-11-13T13:15:10;1.37;;;0.80;;
1128;SDS011;553;51.038;7.216;2022-11-13T13:23:42;3.30;;;0.80;;
1128;SDS011;553;51.038;7.216;2022-11-13T13:26:42;1.60;;;0.83;;
1128;SDS011;553;51.038;7.216;2022-11-13T13:29:29;1.13;;;0.90;;
1128;SDS011;553;51.038;7.216;2022-11-13T13:32:34;1.13;;;0.70;;
1128;SDS011;553;51.038;7.216;2022-11-13T13:35:32;2.03;;;0.90;;
1128;SDS011;553;51.038;7.216;2022-11-13T13:38:28;2.30;;;1.53;;
1128;SDS011;553;51.038;7.216;2022-11-13T13:47:33;1.07;;;1.00;;
1128;SDS011;553;51.038;7.216;2022-11-13T13:50:24;0.97;;;0.87;;
1128;SDS011;553;51.038;7.216;2022-11-13T13:53:17;1.60;;;0.97;;
1128;SDS011;553;51.038;7.216;2022-11-13T13:56:08;1.30;;;0.80;;
1128;SDS011;553;51.038;7.216;2022-11-13T13:58:55;1.43;;;0.80;;
1128;SDS011;553;51.038;7.216;2022-11-13T14:01:51;3.30;;;2.07;;
1128;SDS011;553;51.038;7.216;2022-11-13T14:04:43;7.07;;;2.87;;
1128;SDS011;553;51.038;7.216;2022-11-13T14:07:36;3.33;;;2.60;;
1128;SDS011;553;51.038;7.216;2022-11-13T14:10:29;3.07;;;2.40;;
1128;SDS011;553;51.038;7.216;2022-11-13T14:13:22;4.53;;;2.83;;
1128;SDS011;553;51.038;7.216;2022-11-13T14:16:08;3.30;;;1.97;;
1128;SDS011;553;51.038;7.216;2022-11-13T14:19:03;4.43;;;2.57;;
1128;SDS011;553;51.038;7.216;2022-11-13T14:21:49;2.60;;;2.30;;
1128;SDS011;553;51.038;7.216;2022-11-13T14:24:48;3.63;;;2.30;;
1128;SDS011;553;51.038;7.216;2022-11-13T14:27:37;3.00;;;2.30;;
1128;SDS011;553;51.038;7.216;2022-11-13T14:30:27;3.40;;;1.90;;
1128;SDS011;553;51.038;7.216;2022-11-13T14:33:15;3.23;;;1.97;;
1128;SDS011;553;51.038;7.216;2022-11-13T14:36:06;3.17;;;2.30;;
1128;SDS011;553;51.038;7.216;2022-11-13T14:38:51;2.70;;;2.10;;
1128;SDS011;553;51.038;7.216;2022-11-13T14:44:32;4.00;;;3.60;;
1128;SDS011;553;51.038;7.216;2022-11-13T14:47:20;4.33;;;3.23;;
1128;SDS011;553;51.038;7.216;2022-11-13T14:53:07;3.83;;;2.33;;
1128;SDS011;553;51.038;7.216;2022-11-13T14:55:54;3.20;;;2.47;;
1128;SDS011;553;51.038;7.216;2022-11-13T14:58:43;3.00;;;2.13;;
1128;SDS011;553;51.038;7.216;2022-11-13T15:01:31;2.70;;;2.43;;
1128;SDS011;553;51.038;7.216;2022-11-13T15:04:17;3.77;;;2.60;;
1128;SDS011;553;51.038;7.216;2022-11-13T15:07:16;4.00;;;3.20;;
1128;SDS011;553;51.038;7.216;2022-11-13T15:10:23;3.87;;;3.10;;
1128;SDS011;553;51.038;7.216;2022-11-13T15:13:11;4.63;;;3.07;;
1128;SDS011;553;51.038;7.216;2022-11-13T15:15:57;3.73;;;2.63;;
1128;SDS011;553;51.038;7.216;2022-11-13T15:18:51;8.80;;;4.60;;
1128;SDS011;553;51.038;7.216;2022-11-13T15:21:39;5.37;;;3.23;;
1128;SDS011;553;51.038;7.216;2022-11-13T15:24:24;5.30;;;3.50;;
1128;SDS011;553;51.038;7.216;2022-11-13T15:27:16;5.97;;;3.70;;
1128;SDS011;553;51.038;7.216;2022-11-13T15:30:02;6.03;;;3.70;;
1128;SDS011;553;51.038;7.216;2022-11-13T15:32:48;5.33;;;4.13;;
1128;SDS011;553;51.038;7.216;2022-11-13T15:35:37;6.60;;;4.00;;
1128;SDS011;553;51.038;7.216;2022-11-13T15:38:22;5.10;;;3.97;;
1128;SDS011;553;51.038;7.216;2022-11-13T15:41:11;4.97;;;3.83;;
1128;SDS011;553;51.038;7.216;2022-11-13T15:43:59;4.63;;;3.50;;
1128;SDS011;553;51.038;7.216;2022-11-13T15:46:46;4.60;;;3.50;;
1128;SDS011;553;51.038;7.216;2022-11-13T15:49:31;6.80;;;5.97;;
1128;SDS011;553;51.038;7.216;2022-11-13T15:52:16;6.80;;;4.60;;
1128;SDS011;553;51.038;7.216;2022-11-13T15:55:03;6.83;;;4.80;;
1128;SDS011;553;51.038;7.216;2022-11-13T15:57:57;11.77;;;7.93;;
1128;SDS011;553;51.038;7.216;2022-11-13T16:00:43;10.03;;;8.67;;
1128;SDS011;553;51.038;7.216;2022-11-13T16:03:29;7.40;;;6.43;;
1128;SDS011;553;51.038;7.216;2022-11-13T16:06:19;5.37;;;4.40;;
1128;SDS011;553;51.038;7.216;2022-11-13T16:09:08;6.97;;;5.47;;
1128;SDS011;553;51.038;7.216;2022-11-13T16:11:57;6.20;;;4.70;;
1128;SDS011;553;51.038;7.216;2022-11-13T16:14:45;7.00;;;5.73;;
1128;SDS011;553;51.038;7.216;2022-11-13T16:17:30;6.53;;;3.87;;
1128;SDS011;553;51.038;7.216;2022-11-13T16:20:23;7.23;;;4.93;;
1128;SDS011;553;51.038;7.216;2022-11-13T16:23:10;5.23;;;4.40;;
1128;SDS011;553;51.038;7.216;2022-11-13T16:26:00;7.03;;;4.97;;
1128;SDS011;553;51.038;7.216;2022-11-13T16:28:49;7.43;;;5.30;;
1128;SDS011;553;51.038;7.216;2022-11-13T16:31:58;12.10;;;9.63;;
1128;SDS011;553;51.038;7.216;2022-11-13T16:34:44;8.90;;;5.53;;
1128;SDS011;553;51.038;7.216;2022-11-13T16:37:30;10.73;;;7.90;;
1128;SDS011;553;51.038;7.216;2022-11-13T16:40:22;17.40;;;12.00;;
1128;SDS011;553;51.038;7.216;2022-11-13T16:43:09;14.63;;;10.20;;
1128;SDS011;553;51.038;7.216;2022-11-13T16:45:56;15.30;;;11.80;;
1128;SDS011;553;51.038;7.216;2022-11-13T16:48:43;16.20;;;11.13;;
1128;SDS011;553;51.038;7.216;2022-11-13T16:51:29;9.17;;;7.77;;
1128;SDS011;553;51.038;7.216;2022-11-13T16:54:14;10.60;;;8.10;;
1128;SDS011;553;51.038;7.216;2022-11-13T16:57:00;16.80;;;9.40;;
1128;SDS011;553;51.038;7.216;2022-11-13T16:59:45;15.23;;;11.17;;
1128;SDS011;553;51.038;7.216;2022-11-13T17:02:31;20.70;;;14.67;;
1128;SDS011;553;51.038;7.216;2022-11-13T17:05:16;14.90;;;11.30;;
1128;SDS011;553;51.038;7.216;2022-11-13T17:08:02;19.43;;;12.93;;
1128;SDS011;553;51.038;7.216;2022-11-13T17:10:56;12.63;;;9.73;;
1128;SDS011;553;51.038;7.216;2022-11-13T17:13:42;14.57;;;10.20;;
1128;SDS011;553;51.038;7.216;2022-11-13T17:16:28;15.43;;;11.10;;
1128;SDS011;553;51.038;7.216;2022-11-13T17:19:14;17.77;;;10.70;;
1128;SDS011;553;51.038;7.216;2022-11-13T17:22:00;21.80;;;12.27;;
1128;SDS011;553;51.038;7.216;2022-11-13T17:24:45;15.10;;;10.63;;
1128;SDS011;553;51.038;7.216;2022-11-13T17:27:31;17.40;;;11.03;;
1128;SDS011;553;51.038;7.216;2022-11-13T17:30:16;16.03;;;11.63;;
1128;SDS011;553;51.038;7.216;2022-11-13T17:33:02;19.73;;;12.90;;
1128;SDS011;553;51.038;7.216;2022-11-13T17:35:54;17.60;;;11.90;;
1128;SDS011;553;51.038;7.216;2022-11-13T17:38:40;13.93;;;10.33;;
1128;SDS011;553;51.038;7.216;2022-11-13T17:41:25;13.40;;;10.37;;
1128;SDS011;553;51.038;7.216;2022-11-13T17:44:11;16.30;;;10.90;;
1128;SDS011;553;51.038;7.216;2022-11-13T17:46:56;15.80;;;11.50;;
1128;SDS011;553;51.038;7.216;2022-11-13T17:49:42;16.27;;;10.73;;
1128;SDS011;553;51.038;7.216;2022-11-13T17:52:27;16.33;;;11.87;;
1128;SDS011;553;51.038;7.216;2022-11-13T17:55:12;18.97;;;13.20;;
1128;SDS011;553;51.038;7.216;2022-11-13T17:57:58;16.40;;;10.40;;
1128;SDS011;553;51.038;7.216;2022-11-13T18:00:44;12.40;;;9.20;;
1128;SDS011;553;51.038;7.216;2022-11-13T18:03:30;11.40;;;9.03;;
1128;SDS011;553;51.038;7.216;2022-11-13T18:06:16;15.30;;;11.20;;
1128;SDS011;553;51.038;7.216;2022-11-13T18:09:04;10.93;;;8.80;;
1128;SDS011;553;51.038;7.216;2022-11-13T18:11:49;13.30;;;9.60;;
1128;SDS011;553;51.038;7.216;2022-11-13T18:14:35;17.33;;;12.67;;
1128;SDS011;553;51.038;7.216;2022-11-13T18:17:20;16.00;;;9.63;;
1128;SDS011;553;51.038;7.216;2022-11-13T18:20:06;24.63;;;15.87;;
1128;SDS011;553;51.038;7.216;2022-11-13T18:22:52;18.10;;;12.73;;
1128;SDS011;553;51.038;7.216;2022-11-13T18:25:38;18.43;;;13.60;;
1128;SDS011;553;51.038;7.216;2022-11-13T18:28:24;14.33;;;11.10;;
1128;SDS011;553;51.038;7.216;2022-11-13T18:31:10;13.30;;;10.37;;
1128;SDS011;553;51.038;7.216;2022-11-13T18:33:57;17.57;;;13.30;;
1128;SDS011;553;51.038;7.216;2022-11-13T18:36:44;12.30;;;9.20;;
1128;SDS011;553;51.038;7.216;2022-11-13T18:39:29;9.30;;;6.77;;
1128;SDS011;553;51.038;7.216;2022-11-13T18:42:14;16.77;;;11.50;;
1128;SDS011;553;51.038;7.216;2022-11-13T18:45:00;19.40;;;17.07;;
1128;SDS011;553;51.038;7.216;2022-11-13T18:47:49;13.97;;;10.63;;
1128;SDS011;553;51.038;7.216;2022-11-13T18:50:35;17.40;;;11.30;;
1128;SDS011;553;51.038;7.216;2022-11-13T18:53:20;18.43;;;12.30;;
1128;SDS011;553;51.038;7.216;2022-11-13T18:56:07;14.60;;;9.47;;
1128;SDS011;553;51.038;7.216;2022-11-13T18:58:56;15.63;;;11.60;;
1128;SDS011;553;51.038;7.216;2022-11-13T19:01:42;14.40;;;10.87;;
1128;SDS011;553;51.038;7.216;2022-11-13T19:04:27;13.10;;;9.40;;
1128;SDS011;553;51.038;7.216;2022-11-13T19:07:13;10.00;;;8.03;;
1128;SDS011;553;51.038;7.216;2022-11-13T19:09:58;11.47;;;9.10;;